createdAt,value
2023-04-25T00:02:21.364Z,100656.38
2023-04-25T00:05:26.263Z,100652.19
2023-04-25T00:08:32.274Z,100647.03
2023-04-25T00:11:37.025Z,100640.94
2023-04-25T00:14:42.216Z,100636.91
2023-04-25T00:17:47.473Z,100636.22
2023-04-25T00:20:51.464Z,100626.03
2023-04-25T00:23:55.397Z,100632.97
2023-04-25T00:26:59.292Z,100613.59
2023-04-25T00:30:04.501Z,100601.53
2023-04-25T00:33:11.372Z,100581.50
2023-04-25T00:36:16.710Z,100586.75
2023-04-25T00:39:21.354Z,100584.06
2023-04-25T00:42:27.248Z,100587.59
2023-04-25T00:45:32.160Z,100582.09
2023-04-25T00:48:36.714Z,100575.28
2023-04-25T00:51:41.046Z,100569.00
2023-04-25T00:54:45.153Z,100554.72
2023-04-25T00:57:49.819Z,100575.09
2023-04-25T01:00:55.007Z,100586.03
2023-04-25T01:04:01.390Z,100572.91
2023-04-25T01:07:06.032Z,100571.84
2023-04-25T01:10:11.687Z,100573.53
2023-04-25T01:13:16.635Z,100569.56
2023-04-25T01:16:22.145Z,100561.22
2023-04-25T01:19:27.711Z,100531.94
2023-04-25T01:22:32.551Z,100551.19
2023-04-25T01:25:37.061Z,100537.38
2023-04-25T01:28:43.231Z,100547.25
2023-04-25T01:31:49.308Z,100539.75
2023-04-25T01:34:54.319Z,100528.09
2023-04-25T01:37:58.318Z,100506.69
2023-04-25T01:41:02.363Z,100517.28
2023-04-25T01:44:07.403Z,100498.66
2023-04-25T01:47:11.892Z,100484.34
2023-04-25T01:50:16.852Z,100493.72
2023-04-25T01:53:21.306Z,100474.50
2023-04-25T01:56:25.702Z,100478.66
2023-04-25T01:59:32.233Z,100475.69
2023-04-25T02:03:10.373Z,100476.47
2023-04-25T02:06:14.479Z,100466.78
2023-04-25T02:09:21.983Z,100443.72
2023-04-25T02:12:30.573Z,100440.72
2023-04-25T02:15:40.597Z,100427.50
2023-04-25T02:18:56.233Z,100417.88
2023-04-25T02:22:00.626Z,100406.44
2023-04-25T02:25:06.491Z,100392.91
2023-04-25T02:28:12.218Z,100391.16
2023-04-25T02:31:16.706Z,100383.13
2023-04-25T02:34:20.819Z,100383.03
2023-04-25T02:37:25.212Z,100357.28
2023-04-25T02:40:29.738Z,100364.72
2023-04-25T02:43:34.448Z,100384.03
2023-04-25T02:46:39.928Z,100338.06
2023-04-25T02:49:44.077Z,100331.72
2023-04-25T02:52:48.398Z,100317.25
2023-04-25T02:56:01.786Z,100350.00
2023-04-25T02:59:06.349Z,100312.03
2023-04-25T03:02:10.740Z,100315.66
2023-04-25T03:05:14.783Z,100301.91
2023-04-25T03:08:20.193Z,100301.97
2023-04-25T03:11:24.599Z,100307.06
2023-04-25T03:14:28.833Z,100302.81
2023-04-25T03:17:33.367Z,100297.53
2023-04-25T03:20:38.214Z,100285.72
2023-04-25T03:23:42.268Z,100272.84
2023-04-25T03:26:46.169Z,100240.22
2023-04-25T03:29:50.714Z,100266.44
2023-04-25T03:32:55.736Z,100270.34
2023-04-25T03:36:00.182Z,100260.69
2023-04-25T03:39:06.317Z,100259.41
2023-04-25T03:42:11.818Z,100250.50
2023-04-25T03:45:15.771Z,100255.25
2023-04-25T03:48:19.800Z,100247.09
2023-04-25T03:51:24.725Z,100220.66
2023-04-25T03:54:29.302Z,100228.94
2023-04-25T03:57:40.554Z,100224.81
2023-04-25T04:00:44.537Z,100202.41
2023-04-25T04:03:49.153Z,100200.38
2023-04-25T04:06:54.414Z,100191.94
2023-04-25T04:10:04.487Z,100186.50
2023-04-25T04:13:13.352Z,100166.34
2023-04-25T04:16:17.590Z,100156.81
2023-04-25T04:19:22.683Z,100159.75
2023-04-25T04:22:36.812Z,100118.28
2023-04-25T04:25:45.575Z,100156.56
2023-04-25T04:29:22.688Z,100131.88
2023-04-25T04:32:40.640Z,100143.75
2023-04-25T04:35:44.803Z,100151.78
2023-04-25T04:38:50.066Z,100134.03
2023-04-25T04:42:03.821Z,100141.91
2023-04-25T04:45:19.862Z,100124.81
2023-04-25T04:48:58.147Z,100125.41
2023-04-25T04:52:20.212Z,100098.47
2023-04-25T04:55:59.788Z,100103.63
2023-04-25T04:59:13.442Z,100062.19
2023-04-25T05:02:25.187Z,100078.75
2023-04-25T05:05:48.635Z,100070.13
2023-04-25T05:09:09.090Z,100071.69
2023-04-25T05:12:23.382Z,100047.25
2023-04-25T05:15:50.168Z,100064.25
2023-04-25T05:19:15.380Z,100067.25
2023-04-25T05:22:30.189Z,100050.09
2023-04-25T05:25:46.380Z,100056.03
2023-04-25T05:29:09.838Z,100062.00
2023-04-25T05:32:37.487Z,100051.66
2023-04-25T05:35:42.364Z,100033.53
2023-04-25T05:38:48.219Z,100036.69
2023-04-25T05:41:52.290Z,100019.94
2023-04-25T05:45:16.774Z,100015.22
2023-04-25T05:48:50.665Z,100001.25
2023-04-25T05:52:17.909Z,99988.53
2023-04-25T05:55:29.660Z,100018.91
2023-04-25T05:58:36.022Z,99963.81
2023-04-25T06:01:42.160Z,99960.41
2023-04-25T06:04:46.961Z,99989.00
2023-04-25T06:07:51.023Z,99979.16
2023-04-25T06:10:56.015Z,99972.56
2023-04-25T06:14:00.956Z,99978.13
2023-04-25T06:17:10.303Z,99967.38
2023-04-25T06:20:14.722Z,99957.06
2023-04-25T06:23:18.765Z,99950.91
2023-04-25T06:26:30.014Z,99961.56
2023-04-25T06:29:35.015Z,99968.00
2023-04-25T06:32:39.434Z,99957.22
2023-04-25T06:35:43.974Z,99946.75
2023-04-25T06:38:51.035Z,99959.56
2023-04-25T06:41:55.556Z,99953.91
2023-04-25T06:45:17.902Z,99964.88
2023-04-25T06:48:22.404Z,99946.44
2023-04-25T06:51:31.624Z,99954.78
2023-04-25T06:54:35.604Z,99947.38
2023-04-25T06:57:51.268Z,99944.63
2023-04-25T07:01:24.477Z,99927.72
2023-04-25T07:04:29.132Z,99938.13
2023-04-25T07:07:35.362Z,99962.19
2023-04-25T07:10:40.132Z,99956.66
2023-04-25T07:13:44.138Z,99946.38
2023-04-25T07:16:48.643Z,99913.88
2023-04-25T07:19:53.309Z,99961.16
2023-04-25T07:22:57.986Z,99911.44
2023-04-25T07:26:02.918Z,99960.03
2023-04-25T07:29:08.104Z,99963.50
2023-04-25T07:32:14.082Z,99961.94
2023-04-25T07:35:20.590Z,99966.16
2023-04-25T07:38:25.664Z,99956.41
2023-04-25T07:41:29.927Z,99956.59
2023-04-25T07:44:36.410Z,99937.63
2023-04-25T07:47:41.302Z,99973.44
2023-04-25T07:50:47.141Z,99973.59
2023-04-25T07:53:52.591Z,99983.94
2023-04-25T07:56:58.873Z,99982.66
2023-04-25T08:00:11.211Z,99988.72
2023-04-25T08:03:21.200Z,99965.47
2023-04-25T08:06:25.706Z,100000.59
2023-04-25T08:09:44.802Z,99960.53
2023-04-25T08:12:57.921Z,99955.00
2023-04-25T08:16:02.466Z,100005.16
2023-04-25T08:19:07.896Z,100003.44
2023-04-25T08:22:12.868Z,99987.00
2023-04-25T08:25:28.312Z,100010.75
2023-04-25T08:28:32.950Z,99976.78
2023-04-25T08:31:39.713Z,100011.06
2023-04-25T08:34:45.989Z,100014.75
2023-04-25T08:37:51.377Z,100024.78
2023-04-25T08:40:57.171Z,100028.78
2023-04-25T08:44:03.140Z,100013.66
2023-04-25T08:47:08.599Z,100022.72
2023-04-25T08:50:23.023Z,100027.91
2023-04-25T08:53:30.855Z,100011.63
2023-04-25T08:56:38.112Z,100039.28
2023-04-25T08:59:47.183Z,100022.66
2023-04-25T09:02:52.078Z,100021.16
2023-04-25T09:05:58.194Z,100020.00
2023-04-25T09:09:12.835Z,100026.97
2023-04-25T09:12:20.847Z,100028.97
2023-04-25T09:15:25.999Z,100022.72
2023-04-25T09:18:48.638Z,100027.22
2023-04-25T09:21:59.488Z,100010.84
2023-04-25T09:25:12.784Z,100009.75
2023-04-25T09:28:18.206Z,99992.81
2023-04-25T09:31:26.507Z,99981.09
2023-04-25T09:34:44.942Z,99991.22
2023-04-25T09:37:50.531Z,99981.88
2023-04-25T09:41:26.148Z,99966.63
2023-04-25T09:44:33.411Z,99993.38
2023-04-25T09:47:40.756Z,99984.75
2023-04-25T09:50:47.268Z,99960.78
2023-04-25T09:53:52.809Z,99994.81
2023-04-25T09:57:24.941Z,99993.66
2023-04-25T10:00:32.644Z,99987.50
2023-04-25T10:03:52.530Z,99946.94
2023-04-25T10:07:17.301Z,99990.59
2023-04-25T10:10:27.449Z,99978.97
2023-04-25T10:13:32.957Z,99994.28
2023-04-25T10:16:38.487Z,99991.38
2023-04-25T10:19:42.975Z,99967.06
2023-04-25T10:22:50.139Z,99993.66
2023-04-25T10:25:54.900Z,100000.88
2023-04-25T10:29:04.971Z,99979.13
2023-04-25T10:32:10.382Z,99983.59
2023-04-25T10:35:19.731Z,99997.97
2023-04-25T10:38:25.267Z,99935.13
2023-04-25T10:41:31.388Z,100001.31
2023-04-25T10:44:37.230Z,99994.75
2023-04-25T10:47:46.910Z,99995.91
2023-04-25T10:50:53.324Z,99990.56
2023-04-25T10:53:56.874Z,100002.75
2023-04-25T10:57:02.007Z,99975.59
2023-04-25T11:00:11.496Z,100001.00
2023-04-25T11:03:24.004Z,99984.50
2023-04-25T11:06:44.866Z,99999.19
2023-04-25T11:09:49.847Z,99987.97
2023-04-25T11:13:05.069Z,99994.84
2023-04-25T11:16:13.154Z,99992.94
2023-04-25T11:19:17.891Z,100007.09
2023-04-25T11:22:23.784Z,100013.97
2023-04-25T11:25:28.956Z,99965.03
2023-04-25T11:28:33.080Z,99989.09
2023-04-25T11:31:37.670Z,100014.75
2023-04-25T11:34:47.113Z,100009.81
2023-04-25T11:37:52.156Z,100007.41
2023-04-25T11:40:57.386Z,100003.97
2023-04-25T11:44:01.950Z,100009.13
2023-04-25T11:47:06.370Z,100007.91
2023-04-25T11:50:11.646Z,100007.53
2023-04-25T11:53:16.570Z,100006.56
2023-04-25T11:56:22.562Z,100005.19
2023-04-25T11:59:28.449Z,100007.66
2023-04-25T12:02:33.576Z,100005.97
2023-04-25T12:05:39.646Z,100009.16
2023-04-25T12:09:10.909Z,100022.31
2023-04-25T12:12:15.318Z,100022.53
2023-04-25T12:15:26.990Z,100014.94
2023-04-25T12:18:32.215Z,100007.81
2023-04-25T12:21:41.219Z,100025.19
2023-04-25T12:24:56.266Z,99975.31
2023-04-25T12:28:29.133Z,100013.38
2023-04-25T12:31:34.865Z,100010.94
2023-04-25T12:34:40.556Z,100001.38
2023-04-25T12:37:45.234Z,100009.22
2023-04-25T12:40:49.783Z,100013.69
2023-04-25T12:43:54.376Z,100014.72
2023-04-25T12:46:58.822Z,100015.25
2023-04-25T12:50:03.579Z,100015.25
2023-04-25T12:53:08.242Z,100010.41
2023-04-25T12:56:13.059Z,99977.09
2023-04-25T12:59:17.716Z,100016.13
2023-04-25T13:02:22.553Z,100010.34
2023-04-25T13:05:28.139Z,99989.44
2023-04-25T13:08:32.531Z,100011.38
2023-04-25T13:11:37.408Z,100006.44
2023-04-25T13:14:41.527Z,99980.31
2023-04-25T13:17:45.553Z,100013.91
2023-04-25T13:20:49.936Z,100011.22
2023-04-25T13:23:55.334Z,99997.03
2023-04-25T13:27:00.279Z,100002.38
2023-04-25T13:30:11.258Z,99995.41
2023-04-25T13:33:16.690Z,99992.63
2023-04-25T13:36:21.191Z,99992.78
2023-04-25T13:39:26.711Z,99999.84
2023-04-25T13:42:31.175Z,99978.81
2023-04-25T13:45:35.740Z,99984.94
2023-04-25T13:48:40.457Z,99999.84
2023-04-25T13:51:44.392Z,99988.59
2023-04-25T13:54:49.219Z,99999.09
2023-04-25T13:57:53.809Z,99986.63
2023-04-25T14:00:58.353Z,99988.94
2023-04-25T14:04:02.981Z,99985.13
2023-04-25T14:07:06.992Z,99981.66
2023-04-25T14:10:12.023Z,99984.88
2023-04-25T14:13:16.887Z,99982.06
2023-04-25T14:16:21.830Z,99977.84
2023-04-25T14:19:26.850Z,99984.94
2023-04-25T14:22:31.429Z,99971.66
2023-04-25T14:25:36.017Z,99984.94
2023-04-25T14:28:41.037Z,99986.06
2023-04-25T14:31:46.959Z,99964.22
2023-04-25T14:34:51.466Z,99982.16
2023-04-25T14:37:57.166Z,99985.41
2023-04-25T14:41:01.539Z,99978.25
2023-04-25T14:44:05.960Z,99980.84
2023-04-25T14:47:10.759Z,99938.66
2023-04-25T14:50:17.328Z,99978.88
2023-04-25T14:53:21.781Z,99950.72
2023-04-25T14:56:26.519Z,99969.06
2023-04-25T14:59:31.392Z,99966.63
2023-04-25T15:02:36.561Z,99963.91
2023-04-25T15:05:42.488Z,99960.59
2023-04-25T15:08:47.567Z,99983.00
2023-04-25T15:11:53.331Z,99968.84
2023-04-25T15:14:57.663Z,99994.50
2023-04-25T15:18:02.789Z,99976.25
2023-04-25T15:21:07.508Z,99981.91
2023-04-25T15:24:11.634Z,99974.34
2023-04-25T15:27:15.806Z,99952.53
2023-04-25T15:30:21.390Z,99977.94
2023-04-25T15:33:25.588Z,99986.94
2023-04-25T15:36:30.084Z,99979.63
2023-04-25T15:39:46.554Z,99735.38
2023-04-25T15:42:56.049Z,99994.56
2023-04-25T15:46:00.148Z,99970.41
2023-04-25T15:49:04.649Z,99971.50
2023-04-25T15:52:09.402Z,100007.22
2023-04-25T15:55:14.564Z,99988.13
2023-04-25T15:58:19.134Z,99987.06
2023-04-25T16:01:25.378Z,99997.84
2023-04-25T16:04:36.144Z,99996.91
2023-04-25T16:07:41.927Z,100003.31
2023-04-25T16:10:46.015Z,99982.25
2023-04-25T16:13:50.988Z,100009.38
2023-04-25T16:16:55.701Z,99990.03
2023-04-25T16:20:02.642Z,99998.53
2023-04-25T16:23:06.776Z,100010.63
2023-04-25T16:26:11.194Z,100006.44
2023-04-25T16:29:18.652Z,100015.78
2023-04-25T16:32:23.072Z,100023.59
2023-04-25T16:35:31.213Z,100022.94
2023-04-25T16:38:35.936Z,100017.84
2023-04-25T16:41:40.409Z,100025.34
2023-04-25T16:44:45.786Z,100025.84
2023-04-25T16:47:50.424Z,100037.88
2023-04-25T16:50:55.599Z,100052.00
2023-04-25T16:54:03.014Z,100037.72
2023-04-25T16:57:11.369Z,100050.53
2023-04-25T17:00:16.907Z,100022.66
2023-04-25T17:03:21.966Z,100058.25
2023-04-25T17:06:26.726Z,100030.34
2023-04-25T17:09:31.496Z,100064.28
2023-04-25T17:12:36.165Z,100037.97
2023-04-25T17:15:40.944Z,100056.19
2023-04-25T17:18:45.458Z,100072.53
2023-04-25T17:21:49.707Z,100064.09
2023-04-25T17:24:54.937Z,100060.63
2023-04-25T17:28:00.582Z,100082.59
2023-04-25T17:31:05.136Z,100096.50
2023-04-25T17:34:10.673Z,100068.84
2023-04-25T17:37:17.255Z,100087.97
2023-04-25T17:40:22.181Z,100094.16
2023-04-25T17:43:28.516Z,100108.84
2023-04-25T17:46:33.110Z,100093.38
2023-04-25T17:49:37.673Z,100098.31
2023-04-25T17:52:42.701Z,100092.13
2023-04-25T17:55:47.417Z,100067.78
2023-04-25T17:58:52.831Z,100094.06
2023-04-25T18:01:59.234Z,100121.25
2023-04-25T18:05:09.964Z,100123.03
2023-04-25T18:08:15.414Z,100107.44
2023-04-25T18:11:20.086Z,100118.72
2023-04-25T18:14:25.691Z,100110.00
2023-04-25T18:17:30.270Z,100118.78
2023-04-25T18:20:34.586Z,100131.91
2023-04-25T18:23:39.559Z,100130.09
2023-04-25T18:26:44.207Z,100086.56
2023-04-25T18:29:48.467Z,100127.44
2023-04-25T18:32:53.009Z,100137.94
2023-04-25T18:35:59.895Z,100147.78
2023-04-25T18:39:21.428Z,100146.09
2023-04-25T18:42:27.048Z,100123.44
2023-04-25T18:45:31.486Z,100139.16
2023-04-25T18:48:35.967Z,100152.31
2023-04-25T18:51:40.312Z,100145.31
2023-04-25T18:54:45.577Z,100140.91
2023-04-25T18:57:50.400Z,100143.50
2023-04-25T19:00:55.157Z,100139.91
2023-04-25T19:04:00.153Z,100143.41
2023-04-25T19:07:05.024Z,100141.75
2023-04-25T19:10:10.013Z,100139.91
2023-04-25T19:13:15.116Z,100153.97
2023-04-25T19:16:20.447Z,100146.94
2023-04-25T19:19:24.656Z,100146.03
2023-04-25T19:22:29.944Z,100154.84
2023-04-25T19:25:35.643Z,100158.31
2023-04-25T19:28:39.755Z,100158.38
2023-04-25T19:31:46.328Z,100147.84
2023-04-25T19:34:51.182Z,100147.88
2023-04-25T19:37:55.603Z,100147.00
2023-04-25T19:41:00.273Z,100138.19
2023-04-25T19:44:07.754Z,100133.03
2023-04-25T19:47:12.183Z,100104.22
2023-04-25T19:50:17.100Z,100133.00
2023-04-25T19:53:21.920Z,100119.00
2023-04-25T19:56:27.344Z,100125.13
2023-04-25T19:59:31.408Z,100116.38
2023-04-25T20:02:37.781Z,100094.47
2023-04-25T20:05:42.564Z,100119.63
2023-04-25T20:08:48.216Z,100115.22
2023-04-25T20:11:53.061Z,100124.00
2023-04-25T20:14:57.618Z,100109.91
2023-04-25T20:18:02.311Z,100115.16
2023-04-25T20:21:08.570Z,100041.00
2023-04-25T20:24:12.941Z,100115.28
2023-04-25T20:27:17.421Z,100134.53
2023-04-25T20:30:22.264Z,100091.66
2023-04-25T20:33:26.985Z,100120.53
2023-04-25T20:36:32.981Z,100115.38
2023-04-25T20:39:37.327Z,100134.53
2023-04-25T20:42:42.158Z,100123.19
2023-04-25T20:45:46.615Z,100127.41
2023-04-25T20:48:53.323Z,100119.50
2023-04-25T20:52:23.569Z,100138.06
2023-04-25T20:55:28.499Z,100147.69
2023-04-25T20:58:33.247Z,100146.78
2023-04-25T21:01:37.897Z,100149.44
2023-04-25T21:04:45.703Z,100153.81
2023-04-25T21:07:50.977Z,100158.19
2023-04-25T21:10:56.013Z,100165.94
2023-04-25T21:14:00.694Z,100171.81
2023-04-25T21:17:05.668Z,100145.63
2023-04-25T21:20:11.960Z,100147.28
2023-04-25T21:23:17.694Z,100179.50
2023-04-25T21:26:22.976Z,100181.56
2023-04-25T21:29:27.456Z,100179.00
2023-04-25T21:32:32.011Z,100179.72
2023-04-25T21:35:36.741Z,100177.66
2023-04-25T21:38:41.150Z,100181.25
2023-04-25T21:41:45.836Z,100193.06
2023-04-25T21:44:50.807Z,100194.59
2023-04-25T21:47:55.827Z,100182.69
2023-04-25T21:51:00.390Z,100194.09
2023-04-25T21:54:06.584Z,100193.81
2023-04-25T21:57:11.920Z,100176.22
2023-04-25T22:00:25.323Z,100190.53
2023-04-25T22:03:29.616Z,100160.88
2023-04-25T22:06:34.408Z,100189.81
2023-04-25T22:09:51.394Z,100204.63
2023-04-25T22:12:59.860Z,100196.28
2023-04-25T22:16:05.292Z,100181.28
2023-04-25T22:19:10.498Z,100205.19
2023-04-25T22:22:15.501Z,100201.16
2023-04-25T22:25:20.396Z,100198.31
2023-04-25T22:28:25.058Z,100199.75
2023-04-25T22:31:29.887Z,100196.28
2023-04-25T22:34:35.132Z,100196.28
2023-04-25T22:37:40.099Z,100195.72
2023-04-25T22:40:44.352Z,100180.00
2023-04-25T22:43:48.286Z,100193.31
2023-04-25T22:46:52.236Z,100188.53
2023-04-25T22:49:58.635Z,100199.13
2023-04-25T22:53:04.911Z,100210.22
2023-04-25T22:56:10.952Z,100204.63
2023-04-25T22:59:16.473Z,100211.91
2023-04-25T23:02:21.123Z,100199.69
2023-04-25T23:05:25.859Z,100207.09
2023-04-25T23:08:30.324Z,100201.84
2023-04-25T23:11:34.968Z,100199.84
2023-04-25T23:14:39.359Z,100185.03
2023-04-25T23:17:44.387Z,100179.50
2023-04-25T23:20:49.003Z,100205.38
2023-04-25T23:23:53.517Z,100197.63
2023-04-25T23:26:58.057Z,100208.88
2023-04-25T23:30:02.221Z,100209.59
2023-04-25T23:33:08.479Z,100203.31
2023-04-25T23:36:23.078Z,100203.91
2023-04-25T23:39:28.571Z,100203.34
2023-04-25T23:42:32.710Z,100208.59
2023-04-25T23:45:37.298Z,100184.56
2023-04-25T23:48:42.191Z,100195.56
2023-04-25T23:51:47.209Z,100199.91
2023-04-25T23:54:51.995Z,100198.16
2023-04-25T23:57:56.437Z,100200.09
